This is the latest recevied weather packets stored in our database for station/object N1UNH. If no packets are shown the sender has not sent any weather packets the latest 10 day(s).
| Time | Temp. | Humidity | Pressure | Rain* | Wind** | Luminosity | Snow |
|---|---|---|---|---|---|---|---|
| 1777929325 | 22.78° C | 28% | 1011 hPa | 0 mm | - | 325 W/m² | - |
| 1777929022 | 22.22° C | 29% | 1011.1 hPa | 0 mm | - | 353 W/m² | - |
| 1777928719 | 22.22° C | 28% | 1011.1 hPa | 0 mm | - | 369 W/m² | - |
| 1777928416 | 21.67° C | 30% | 1011 hPa | 0 mm | - | 461 W/m² | - |
| 1777928114 | 21.67° C | 28% | 1011.1 hPa | 0 mm | - | 111 W/m² | - |
| 1777927812 | 21.11° C | 29% | 1011.2 hPa | 0 mm | - | 457 W/m² | - |
| 1777927509 | 21.67° C | 31% | 1011.2 hPa | 0 mm | - | 493 W/m² | - |
| 1777927208 | 22.78° C | 29% | 1011.1 hPa | 0 mm | - | 101 W/m² | - |
| 1777926906 | 22.78° C | 28% | 1011.1 hPa | 0 mm | - | 494 W/m² | - |
| 1777926602 | 22.78° C | 28% | 1010.8 hPa | 0 mm | - | 497 W/m² | - |
| 1777926298 | 23.33° C | 29% | 1011.2 hPa | 0 mm | - | 528 W/m² | - |
| 1777925995 | 22.78° C | 27% | 1011 hPa | 0 mm | - | 556 W/m² | - |
| 1777925693 | 22.22° C | 29% | 1011.1 hPa | 0 mm | - | 621 W/m² | - |
| 1777925390 | 22.22° C | 28% | 1011.2 hPa | 0 mm | - | 593 W/m² | - |
| 1777925087 | 22.22° C | 28% | 1011.1 hPa | 0 mm | - | 191 W/m² | - |
| 1777924783 | 22.22° C | 28% | 1011.1 hPa | 0 mm | - | 703 W/m² | - |
| 1777924479 | 21.67° C | 30% | 1011.3 hPa | 0 mm | - | 706 W/m² | - |
| 1777924176 | 22.22° C | 28% | 1011 hPa | 0 mm | - | 138 W/m² | - |
| 1777923872 | 22.22° C | 28% | 1011.1 hPa | 0 mm | - | 172 W/m² | - |
| 1777923568 | 21.67° C | 29% | 1011.1 hPa | 0 mm | - | 718 W/m² | - |
| 1777923265 | 22.22° C | 28% | 1011.1 hPa | 0 mm | - | 132 W/m² | - |
| 1777922964 | 21.67° C | 31% | 1011.2 hPa | 0 mm | - | 172 W/m² | - |
| 1777922661 | 20.56° C | 30% | 1011.2 hPa | 0 mm | - | 595 W/m² | - |
| 1777922360 | 20.56° C | 30% | 1011.2 hPa | 0 mm | - | 134 W/m² | - |
| 1777922057 | 21.11° C | 29% | 1011.3 hPa | 0 mm | - | 144 W/m² | - |
* Rain latest hour (hover to see other rain measurements)
** Current wind speed in m/s (hover to see current wind gust speed)